createdAt,value
2018-01-30T00:01:18.506Z,99301.99
2018-01-30T00:03:46.062Z,99308.98
2018-01-30T00:06:13.697Z,99317.86
2018-01-30T00:08:41.199Z,99319.73
2018-01-30T00:11:08.703Z,99320.09
2018-01-30T00:13:36.232Z,99322.58
2018-01-30T00:16:03.828Z,99322.34
2018-01-30T00:18:31.558Z,99316.94
2018-01-30T00:20:59.108Z,99324.57
2018-01-30T00:23:26.637Z,99322.48
2018-01-30T00:25:54.138Z,99319.59
2018-01-30T00:28:21.653Z,99312.50
2018-01-30T00:30:49.207Z,99312.61
2018-01-30T00:33:16.788Z,99316.55
2018-01-30T00:35:44.318Z,99324.63
2018-01-30T00:38:11.876Z,99327.18
2018-01-30T00:40:39.432Z,99329.44
2018-01-30T00:43:06.947Z,99337.20
2018-01-30T00:45:34.500Z,99345.73
2018-01-30T00:48:02.055Z,99333.06
2018-01-30T00:50:29.625Z,99337.94
2018-01-30T00:52:57.427Z,99345.30
2018-01-30T00:55:24.932Z,99342.97
2018-01-30T00:57:52.441Z,99340.22
2018-01-30T01:00:19.947Z,99337.40
2018-01-30T01:02:47.551Z,99331.53
2018-01-30T01:05:15.096Z,99328.63
2018-01-30T01:07:42.626Z,99336.50
2018-01-30T01:10:10.211Z,99338.83
2018-01-30T01:12:37.764Z,99343.88
2018-01-30T01:15:05.331Z,99343.77
2018-01-30T01:17:32.840Z,99344.33
2018-01-30T01:20:00.564Z,99347.02
2018-01-30T01:22:28.111Z,99355.09
2018-01-30T01:24:55.617Z,99354.90
2018-01-30T01:27:23.122Z,99352.89
2018-01-30T01:29:50.633Z,99355.64
2018-01-30T01:32:18.127Z,99351.38
2018-01-30T01:34:45.701Z,99355.95
2018-01-30T01:37:13.217Z,99351.95
2018-01-30T01:39:40.732Z,99352.78
2018-01-30T01:42:08.296Z,99353.45
2018-01-30T01:44:35.872Z,99349.70
2018-01-30T01:47:03.376Z,99347.00
2018-01-30T01:49:32.681Z,99348.20
2018-01-30T01:52:00.211Z,99349.23
2018-01-30T01:54:27.742Z,99345.39
2018-01-30T01:56:55.377Z,99347.05
2018-01-30T01:59:22.878Z,99348.69
2018-01-30T02:01:50.382Z,99351.38
2018-01-30T02:04:17.964Z,99341.88
2018-01-30T02:06:45.611Z,99346.59
2018-01-30T02:09:13.195Z,99352.06
2018-01-30T02:11:40.936Z,99351.13
2018-01-30T02:14:08.437Z,99348.02
2018-01-30T02:16:35.998Z,99351.25
2018-01-30T02:19:03.564Z,99352.83
2018-01-30T02:21:31.072Z,99351.44
2018-01-30T02:23:59.467Z,99351.44
2018-01-30T02:26:27.042Z,99348.89
2018-01-30T02:28:54.653Z,99341.41
2018-01-30T02:31:22.167Z,99338.41
2018-01-30T02:33:49.711Z,99335.68
2018-01-30T02:36:17.226Z,99338.40
2018-01-30T02:38:44.740Z,99348.53
2018-01-30T02:41:12.352Z,99349.25
2018-01-30T02:43:39.856Z,99347.02
2018-01-30T02:46:07.379Z,99343.33
2018-01-30T02:48:34.947Z,99339.88
2018-01-30T02:51:02.483Z,99340.33
2018-01-30T02:53:30.013Z,99336.77
2018-01-30T02:55:57.513Z,99331.95
2018-01-30T02:58:25.134Z,99329.52
2018-01-30T03:00:52.735Z,99331.42
2018-01-30T03:03:20.508Z,99327.88
2018-01-30T03:05:49.232Z,99326.45
2018-01-30T03:08:16.738Z,99329.86
2018-01-30T03:10:44.411Z,99319.27
2018-01-30T03:13:12.020Z,99316.94
2018-01-30T03:15:39.514Z,99318.47
2018-01-30T03:18:07.006Z,99328.13
2018-01-30T03:20:34.632Z,99320.80
2018-01-30T03:23:02.266Z,99319.30
2018-01-30T03:25:29.762Z,99322.67
2018-01-30T03:27:57.423Z,99313.63
2018-01-30T03:30:25.032Z,99319.91
2018-01-30T03:32:52.576Z,99312.97
2018-01-30T03:35:20.511Z,99314.94
2018-01-30T03:37:48.023Z,99316.31
2018-01-30T03:40:15.613Z,99316.80
2018-01-30T03:42:43.293Z,99321.63
2018-01-30T03:45:10.794Z,99308.87
2018-01-30T03:47:38.306Z,99317.77
2018-01-30T03:50:05.792Z,99314.95
2018-01-30T03:52:33.307Z,99312.23
2018-01-30T03:55:00.937Z,99318.67
2018-01-30T03:57:28.510Z,99314.24
2018-01-30T03:59:55.999Z,99320.41
2018-01-30T04:02:23.591Z,99326.97
2018-01-30T04:04:51.096Z,99334.88
2018-01-30T04:07:18.697Z,99341.03
2018-01-30T04:09:46.191Z,99335.06
2018-01-30T04:12:13.758Z,99326.47
2018-01-30T04:14:41.391Z,99329.94
2018-01-30T04:17:08.948Z,99330.40
2018-01-30T04:19:36.582Z,99322.85
2018-01-30T04:22:04.091Z,99326.36
2018-01-30T04:24:31.705Z,99331.77
2018-01-30T04:27:00.141Z,99338.97
2018-01-30T04:29:27.654Z,99333.34
2018-01-30T04:31:55.187Z,99338.10
2018-01-30T04:34:22.782Z,99346.34
2018-01-30T04:36:50.302Z,99343.56
2018-01-30T04:39:17.808Z,99348.06
2018-01-30T04:41:45.327Z,99349.55
2018-01-30T04:44:12.831Z,99347.70
2018-01-30T04:46:40.371Z,99351.26
2018-01-30T04:49:07.908Z,99353.37
2018-01-30T04:51:35.524Z,99356.23
2018-01-30T04:54:03.032Z,99356.95
2018-01-30T04:56:30.731Z,99355.86
2018-01-30T04:58:58.586Z,99363.00
2018-01-30T05:01:26.193Z,99364.66
2018-01-30T05:03:53.873Z,99371.59
2018-01-30T05:06:21.448Z,99371.22
2018-01-30T05:08:49.018Z,99374.00
2018-01-30T05:11:16.514Z,99376.39
2018-01-30T05:13:44.048Z,99378.72
2018-01-30T05:16:11.653Z,99375.67
2018-01-30T05:18:39.166Z,99374.44
2018-01-30T05:21:06.774Z,99379.13
2018-01-30T05:23:34.387Z,99373.86
2018-01-30T05:26:01.967Z,99374.66
2018-01-30T05:28:29.688Z,99382.78
2018-01-30T05:30:57.208Z,99376.58
2018-01-30T05:33:24.793Z,99383.93
2018-01-30T05:35:52.316Z,99382.62
2018-01-30T05:38:19.914Z,99382.05
2018-01-30T05:40:48.398Z,99389.34
2018-01-30T05:43:16.082Z,99393.99
2018-01-30T05:45:43.602Z,99390.53
2018-01-30T05:48:11.145Z,99389.77
2018-01-30T05:50:38.662Z,99399.97
2018-01-30T05:53:06.173Z,99407.47
2018-01-30T05:55:33.830Z,99407.51
2018-01-30T05:58:01.344Z,99403.84
2018-01-30T06:00:28.912Z,99401.05
2018-01-30T06:02:56.530Z,99391.47
2018-01-30T06:05:24.301Z,99395.96
2018-01-30T06:07:51.946Z,99399.17
2018-01-30T06:10:19.448Z,99395.06
2018-01-30T06:12:46.966Z,99398.13
2018-01-30T06:15:14.487Z,99396.39
2018-01-30T06:17:42.159Z,99396.06
2018-01-30T06:20:09.666Z,99403.27
2018-01-30T06:22:37.292Z,99393.33
2018-01-30T06:25:04.808Z,99397.23
2018-01-30T06:27:32.372Z,99400.83
2018-01-30T06:29:59.897Z,99392.17
2018-01-30T06:32:27.571Z,99402.12
2018-01-30T06:34:55.207Z,99402.28
2018-01-30T06:37:22.783Z,99402.20
2018-01-30T06:39:50.451Z,99412.96
2018-01-30T06:42:17.958Z,99410.82
2018-01-30T06:44:45.479Z,99407.16
2018-01-30T06:47:13.088Z,99412.55
2018-01-30T06:49:40.587Z,99414.46
2018-01-30T06:52:08.091Z,99412.13
2018-01-30T06:54:35.647Z,99411.77
2018-01-30T06:57:03.141Z,99415.65
2018-01-30T06:59:30.653Z,99413.12
2018-01-30T07:01:58.182Z,99416.42
2018-01-30T07:04:25.708Z,99419.64
2018-01-30T07:06:53.383Z,99423.30
2018-01-30T07:09:21.017Z,99427.08
2018-01-30T07:11:48.528Z,99421.28
2018-01-30T07:14:16.117Z,99420.55
2018-01-30T07:16:43.707Z,99421.02
2018-01-30T07:19:11.226Z,99427.86
2018-01-30T07:21:38.938Z,99430.14
2018-01-30T07:24:06.433Z,99425.53
2018-01-30T07:26:33.948Z,99427.84
2018-01-30T07:29:01.531Z,99431.77
2018-01-30T07:31:29.117Z,99431.68
2018-01-30T07:33:56.924Z,99434.33
2018-01-30T07:36:24.458Z,99431.06
2018-01-30T07:38:52.319Z,99427.94
2018-01-30T07:41:19.867Z,99433.73
2018-01-30T07:43:47.374Z,99425.49
2018-01-30T07:46:14.888Z,99424.22
2018-01-30T07:48:42.504Z,99426.36
2018-01-30T07:51:10.058Z,99425.08
2018-01-30T07:53:37.580Z,99424.80
2018-01-30T07:56:05.111Z,99414.59
2018-01-30T07:58:32.635Z,99415.05
2018-01-30T08:01:00.148Z,99420.34
2018-01-30T08:03:27.672Z,99417.09
2018-01-30T08:05:55.203Z,99417.48
2018-01-30T08:08:22.722Z,99420.67
2018-01-30T08:10:50.334Z,99426.38
2018-01-30T08:13:17.844Z,99425.33
2018-01-30T08:15:45.432Z,99432.98
2018-01-30T08:18:12.987Z,99432.74
2018-01-30T08:20:40.502Z,99437.51
2018-01-30T08:23:08.038Z,99431.11
2018-01-30T08:25:35.562Z,99436.16
2018-01-30T08:28:03.088Z,99437.41
2018-01-30T08:30:30.662Z,99434.97
2018-01-30T08:32:58.248Z,99433.12
2018-01-30T08:35:25.757Z,99435.67
2018-01-30T08:37:53.271Z,99439.78
2018-01-30T08:40:20.804Z,99442.03
2018-01-30T08:42:48.328Z,99450.30
2018-01-30T08:45:15.952Z,99448.73
2018-01-30T08:47:43.486Z,99446.91
2018-01-30T08:50:11.137Z,99448.67
2018-01-30T08:52:38.732Z,99450.59
2018-01-30T08:55:06.277Z,99452.72
2018-01-30T08:57:33.871Z,99452.11
2018-01-30T09:00:01.408Z,99453.16
2018-01-30T09:02:29.166Z,99451.95
2018-01-30T09:04:56.871Z,99454.77
2018-01-30T09:07:24.579Z,99458.63
2018-01-30T09:09:52.134Z,99458.06
2018-01-30T09:12:19.653Z,99450.63
2018-01-30T09:14:47.168Z,99450.41
2018-01-30T09:17:14.752Z,99456.18
2018-01-30T09:19:42.403Z,99454.50
2018-01-30T09:22:09.963Z,99455.98
2018-01-30T09:24:37.533Z,99456.72
2018-01-30T09:27:05.052Z,99456.72
2018-01-30T09:29:32.742Z,99456.30
2018-01-30T09:32:00.368Z,99454.81
2018-01-30T09:34:28.009Z,99451.19
2018-01-30T09:36:55.529Z,99448.94
2018-01-30T09:39:23.067Z,99451.22
2018-01-30T09:41:50.572Z,99456.08
2018-01-30T09:44:18.097Z,99455.62
2018-01-30T09:46:45.609Z,99451.77
2018-01-30T09:49:13.184Z,99453.84
2018-01-30T09:51:40.719Z,99447.09
2018-01-30T09:54:08.240Z,99438.86
2018-01-30T09:56:35.817Z,99456.43
2018-01-30T09:59:03.342Z,99458.94
2018-01-30T10:01:30.877Z,99467.03
2018-01-30T10:03:58.799Z,99472.75
2018-01-30T10:06:26.451Z,99469.73
2018-01-30T10:08:54.182Z,99464.01
2018-01-30T10:11:21.777Z,99470.05
2018-01-30T10:13:49.404Z,99464.17
2018-01-30T10:16:16.939Z,99456.30
2018-01-30T10:18:44.549Z,99454.98
2018-01-30T10:21:12.073Z,99452.78
2018-01-30T10:23:39.663Z,99447.72
2018-01-30T10:26:07.182Z,99448.34
2018-01-30T10:28:34.983Z,99449.50
2018-01-30T10:31:02.510Z,99447.73
2018-01-30T10:33:30.132Z,99443.92
2018-01-30T10:35:57.712Z,99442.05
2018-01-30T10:38:25.225Z,99446.42
2018-01-30T10:40:52.964Z,99433.78
2018-01-30T10:43:20.551Z,99430.39
2018-01-30T10:45:48.123Z,99424.31
2018-01-30T10:48:15.733Z,99417.22
2018-01-30T10:50:43.248Z,99416.94
2018-01-30T10:53:10.757Z,99420.14
2018-01-30T10:55:38.278Z,99410.05
2018-01-30T10:58:05.845Z,99410.60
2018-01-30T11:00:33.483Z,99408.45
2018-01-30T11:03:01.004Z,99406.38
2018-01-30T11:05:28.528Z,99405.19
2018-01-30T11:07:56.126Z,99393.09
2018-01-30T11:10:23.689Z,99395.89
2018-01-30T11:12:51.263Z,99393.98
2018-01-30T11:15:18.781Z,99397.87
2018-01-30T11:17:46.310Z,99382.69
2018-01-30T11:20:13.803Z,99386.94
2018-01-30T11:22:41.372Z,99385.17
2018-01-30T11:25:08.984Z,99378.34
2018-01-30T11:27:36.512Z,99372.68
2018-01-30T11:30:04.189Z,99365.27
2018-01-30T11:32:31.828Z,99359.16
2018-01-30T11:34:59.698Z,99363.44
2018-01-30T11:37:27.199Z,99356.66
2018-01-30T11:39:54.707Z,99354.52
2018-01-30T11:42:22.234Z,99346.86
2018-01-30T11:44:49.827Z,99342.38
2018-01-30T11:47:17.624Z,99338.23
2018-01-30T11:49:45.254Z,99337.98
2018-01-30T11:52:13.008Z,99334.05
2018-01-30T11:54:40.684Z,99342.03
2018-01-30T11:57:08.303Z,99334.30
2018-01-30T11:59:35.957Z,99334.33
2018-01-30T12:02:03.643Z,99330.08
2018-01-30T12:04:31.159Z,99323.59
2018-01-30T12:06:58.769Z,99322.72
2018-01-30T12:09:26.321Z,99314.23
2018-01-30T12:11:53.873Z,99312.58
2018-01-30T12:14:21.406Z,99314.80
2018-01-30T12:16:48.909Z,99314.41
2018-01-30T12:19:16.532Z,99311.18
2018-01-30T12:21:44.034Z,99307.80
2018-01-30T12:24:11.704Z,99316.38
2018-01-30T12:26:39.264Z,99307.52
2018-01-30T12:29:07.029Z,99309.02
2018-01-30T12:31:34.691Z,99305.69
2018-01-30T12:34:02.197Z,99298.79
2018-01-30T12:36:29.824Z,99300.31
2018-01-30T12:38:57.427Z,99295.19
2018-01-30T12:41:25.040Z,99289.33
2018-01-30T12:43:52.572Z,99288.37
2018-01-30T12:46:20.182Z,99290.38
2018-01-30T12:48:48.087Z,99282.98
2018-01-30T12:51:15.621Z,99280.73
2018-01-30T12:53:43.168Z,99280.34
2018-01-30T12:56:10.794Z,99276.31
2018-01-30T12:58:38.337Z,99269.66
2018-01-30T13:01:05.864Z,99267.69
2018-01-30T13:03:33.523Z,99273.20
2018-01-30T13:06:01.149Z,99266.56
2018-01-30T13:08:28.673Z,99258.91
2018-01-30T13:10:56.282Z,99247.40
2018-01-30T13:13:24.002Z,99246.08
2018-01-30T13:15:51.654Z,99240.23
2018-01-30T13:18:19.222Z,99235.94
2018-01-30T13:20:46.783Z,99237.95
2018-01-30T13:23:14.345Z,99231.11
2018-01-30T13:25:42.008Z,99231.42
2018-01-30T13:28:09.524Z,99235.23
2018-01-30T13:30:37.060Z,99234.32
2018-01-30T13:33:04.667Z,99233.04
2018-01-30T13:35:32.189Z,99218.92
2018-01-30T13:37:59.783Z,99220.47
2018-01-30T13:40:27.305Z,99210.00
2018-01-30T13:42:55.017Z,99209.57
2018-01-30T13:45:22.707Z,99209.45
2018-01-30T13:47:50.352Z,99201.72
2018-01-30T13:50:18.018Z,99202.54
2018-01-30T13:52:45.684Z,99204.51
2018-01-30T13:55:13.283Z,99198.59
2018-01-30T13:57:40.810Z,99194.33
2018-01-30T14:00:08.395Z,99202.64
2018-01-30T14:02:35.946Z,99189.32
2018-01-30T14:05:03.537Z,99188.41
2018-01-30T14:07:31.030Z,99190.48
2018-01-30T14:09:58.797Z,99184.11
2018-01-30T14:12:26.364Z,99183.87
2018-01-30T14:14:53.890Z,99183.54
2018-01-30T14:17:21.499Z,99191.44
2018-01-30T14:19:49.012Z,99180.76
2018-01-30T14:22:16.539Z,99189.17
2018-01-30T14:24:44.074Z,99175.98
2018-01-30T14:27:11.593Z,99175.66
2018-01-30T14:29:39.086Z,99174.28
2018-01-30T14:32:07.316Z,99172.30
2018-01-30T14:34:34.838Z,99171.16
2018-01-30T14:37:02.475Z,99164.38
2018-01-30T14:39:30.070Z,99168.02
2018-01-30T14:41:57.578Z,99169.95
2018-01-30T14:44:25.148Z,99174.80
2018-01-30T14:46:52.750Z,99168.27
2018-01-30T14:49:20.270Z,99167.45
2018-01-30T14:51:47.789Z,99159.45
2018-01-30T14:54:15.315Z,99169.13
2018-01-30T14:56:42.984Z,99167.67
2018-01-30T14:59:10.486Z,99162.72
2018-01-30T15:01:38.165Z,99169.69
2018-01-30T15:04:05.720Z,99174.55
2018-01-30T15:06:33.299Z,99172.68
2018-01-30T15:09:00.830Z,99166.90
2018-01-30T15:11:28.398Z,99169.55
2018-01-30T15:13:55.980Z,99165.03
2018-01-30T15:16:23.725Z,99165.72
2018-01-30T15:18:51.248Z,99166.42
2018-01-30T15:21:18.909Z,99166.25
2018-01-30T15:23:46.444Z,99165.31
2018-01-30T15:26:13.990Z,99161.78
2018-01-30T15:28:41.669Z,99155.05
2018-01-30T15:31:09.237Z,99152.12
2018-01-30T15:33:36.959Z,99161.62
2018-01-30T15:36:04.628Z,99149.24
2018-01-30T15:38:32.269Z,99151.65
2018-01-30T15:40:59.992Z,99155.77
2018-01-30T15:43:27.564Z,99152.25
2018-01-30T15:45:55.101Z,99149.05
2018-01-30T15:48:22.725Z,99141.80
2018-01-30T15:50:50.295Z,99144.09
2018-01-30T15:53:17.895Z,99149.41
2018-01-30T15:55:45.417Z,99146.98
2018-01-30T15:58:13.123Z,99148.05
2018-01-30T16:00:40.724Z,99141.95
2018-01-30T16:03:08.264Z,99128.88
2018-01-30T16:05:35.820Z,99130.20
2018-01-30T16:08:03.486Z,99128.92
2018-01-30T16:10:31.117Z,99122.69
2018-01-30T16:12:58.779Z,99114.45
2018-01-30T16:15:26.322Z,99116.67
2018-01-30T16:17:53.921Z,99114.05
2018-01-30T16:20:21.554Z,99105.03
2018-01-30T16:22:49.103Z,99108.66
2018-01-30T16:25:16.661Z,99107.75
2018-01-30T16:27:44.207Z,99102.19
2018-01-30T16:30:11.867Z,99102.80
2018-01-30T16:32:39.414Z,99099.38
2018-01-30T16:35:06.952Z,99099.27
2018-01-30T16:37:34.483Z,99092.47
2018-01-30T16:40:01.998Z,99095.27
2018-01-30T16:42:29.529Z,99095.89
2018-01-30T16:44:57.203Z,99096.11
2018-01-30T16:47:24.730Z,99095.63
2018-01-30T16:49:52.284Z,99092.23
2018-01-30T16:52:19.801Z,99093.23
2018-01-30T16:54:47.330Z,99086.23
2018-01-30T16:57:14.891Z,99091.53
2018-01-30T16:59:42.417Z,99090.08
2018-01-30T17:02:10.035Z,99092.42
2018-01-30T17:04:37.733Z,99092.88
2018-01-30T17:07:05.328Z,99086.55
2018-01-30T17:09:32.859Z,99087.76
2018-01-30T17:12:00.437Z,99087.91
2018-01-30T17:14:28.079Z,99085.67
2018-01-30T17:16:55.738Z,99081.49
2018-01-30T17:19:23.265Z,99082.07
2018-01-30T17:21:50.789Z,99079.34
2018-01-30T17:24:18.322Z,99077.86
2018-01-30T17:26:45.875Z,99070.69
2018-01-30T17:29:13.494Z,99074.61
2018-01-30T17:31:41.018Z,99066.84
2018-01-30T17:34:08.618Z,99067.21
2018-01-30T17:36:36.183Z,99059.38
2018-01-30T17:39:03.755Z,99059.94
2018-01-30T17:41:31.275Z,99056.31
2018-01-30T17:43:59.275Z,99057.38
2018-01-30T17:46:27.003Z,99051.62
2018-01-30T17:48:54.550Z,99045.77
2018-01-30T17:51:22.165Z,99049.13
2018-01-30T17:53:49.725Z,99045.89
2018-01-30T17:56:17.355Z,99056.25
2018-01-30T17:58:44.885Z,99052.78
2018-01-30T18:01:12.520Z,99048.52
2018-01-30T18:03:40.079Z,99051.18
2018-01-30T18:06:07.640Z,99047.20
2018-01-30T18:08:35.180Z,99048.13
2018-01-30T18:11:02.719Z,99049.27
2018-01-30T18:13:30.295Z,99049.97
2018-01-30T18:15:57.814Z,99043.25
2018-01-30T18:18:25.529Z,99045.70
2018-01-30T18:20:53.070Z,99044.16
2018-01-30T18:23:20.725Z,99044.49
2018-01-30T18:25:48.376Z,99053.28
2018-01-30T18:28:16.045Z,99044.19
2018-01-30T18:30:43.659Z,99046.22
2018-01-30T18:33:11.366Z,99049.45
2018-01-30T18:35:38.906Z,99046.13
2018-01-30T18:38:06.528Z,99053.49
2018-01-30T18:40:34.180Z,99049.89
2018-01-30T18:43:01.718Z,99053.43
2018-01-30T18:45:29.285Z,99051.62
2018-01-30T18:47:56.884Z,99055.06
2018-01-30T18:50:24.558Z,99059.91
2018-01-30T18:52:52.240Z,99051.71
2018-01-30T18:55:19.895Z,99053.00
2018-01-30T18:57:47.548Z,99053.95
2018-01-30T19:00:15.154Z,99054.03
2018-01-30T19:02:42.761Z,99044.41
2018-01-30T19:05:10.343Z,99048.63
2018-01-30T19:07:37.992Z,99044.88
2018-01-30T19:10:05.544Z,99043.16
2018-01-30T19:12:33.173Z,99049.17
2018-01-30T19:15:00.844Z,99045.73
2018-01-30T19:17:28.384Z,99044.43
2018-01-30T19:19:55.990Z,99040.98
2018-01-30T19:22:23.536Z,99043.92
2018-01-30T19:24:51.150Z,99040.39
2018-01-30T19:27:18.770Z,99043.54
2018-01-30T19:29:46.300Z,99032.00
2018-01-30T19:32:13.893Z,99038.14
2018-01-30T19:34:41.469Z,99041.20
2018-01-30T19:37:09.008Z,99037.23
2018-01-30T19:39:36.775Z,99037.47
2018-01-30T19:42:04.345Z,99031.28
2018-01-30T19:44:31.902Z,99032.27
2018-01-30T19:46:59.549Z,99030.84
2018-01-30T19:49:27.084Z,99028.56
2018-01-30T19:51:54.630Z,99030.04
2018-01-30T19:54:22.205Z,99017.84
2018-01-30T19:56:49.749Z,99025.17
2018-01-30T19:59:17.510Z,99018.50
2018-01-30T20:01:45.048Z,99021.69
2018-01-30T20:04:12.620Z,99020.92
2018-01-30T20:06:40.137Z,99019.63
2018-01-30T20:09:07.747Z,99016.45
2018-01-30T20:11:35.271Z,99019.26
2018-01-30T20:14:02.815Z,99013.34
2018-01-30T20:16:30.351Z,99011.33
2018-01-30T20:18:57.881Z,99010.98
2018-01-30T20:21:25.425Z,99001.13
2018-01-30T20:23:52.983Z,99003.86
2018-01-30T20:26:21.202Z,99010.53
2018-01-30T20:28:48.738Z,99002.00
2018-01-30T20:31:16.305Z,99001.48
2018-01-30T20:33:43.842Z,99006.70
2018-01-30T20:36:11.490Z,99005.27
2018-01-30T20:38:39.239Z,99004.13
2018-01-30T20:41:06.765Z,98999.56
2018-01-30T20:43:34.394Z,98993.75
2018-01-30T20:46:02.061Z,98997.27
2018-01-30T20:48:29.718Z,98990.38
2018-01-30T20:50:57.361Z,98985.45
2018-01-30T20:53:24.929Z,98993.84
2018-01-30T20:55:52.444Z,98987.11
2018-01-30T20:58:19.954Z,98977.59
2018-01-30T21:00:47.480Z,98976.17
2018-01-30T21:03:15.018Z,98971.47
2018-01-30T21:05:42.578Z,98969.47
2018-01-30T21:08:10.193Z,98975.88
2018-01-30T21:10:37.864Z,98967.08
2018-01-30T21:13:05.398Z,98966.08
2018-01-30T21:15:32.924Z,98961.15
2018-01-30T21:18:00.570Z,98956.19
2018-01-30T21:20:28.375Z,98954.28
2018-01-30T21:22:55.974Z,98948.13
2018-01-30T21:25:23.579Z,98947.17
2018-01-30T21:27:51.313Z,98943.52
2018-01-30T21:30:18.934Z,98936.20
2018-01-30T21:32:46.464Z,98937.59
2018-01-30T21:35:14.059Z,98933.42
2018-01-30T21:37:41.652Z,98934.69
2018-01-30T21:40:10.019Z,98935.62
2018-01-30T21:42:37.659Z,98927.42
2018-01-30T21:45:05.483Z,98926.88
2018-01-30T21:47:33.337Z,98932.20
2018-01-30T21:50:00.924Z,98915.34
2018-01-30T21:52:28.504Z,98913.70
2018-01-30T21:54:56.039Z,98905.95
2018-01-30T21:57:23.588Z,98900.64
2018-01-30T21:59:51.147Z,98902.98
2018-01-30T22:02:18.720Z,98896.53
2018-01-30T22:04:46.360Z,98896.16
2018-01-30T22:07:14.807Z,98888.70
2018-01-30T22:09:42.615Z,98886.31
2018-01-30T22:12:10.231Z,98884.14
2018-01-30T22:14:37.948Z,98881.01
2018-01-30T22:17:05.590Z,98875.17
2018-01-30T22:19:33.218Z,98878.89
2018-01-30T22:22:00.809Z,98876.88
2018-01-30T22:24:28.365Z,98872.51
2018-01-30T22:26:56.020Z,98866.34
2018-01-30T22:29:23.583Z,98863.32
2018-01-30T22:31:51.313Z,98872.28
2018-01-30T22:34:18.959Z,98869.24
2018-01-30T22:36:46.598Z,98866.77
2018-01-30T22:39:14.169Z,98869.23
2018-01-30T22:41:41.889Z,98868.78
2018-01-30T22:44:09.497Z,98869.15
2018-01-30T22:46:37.274Z,98863.76
